sensor_id;sensor_type;location;lat;lon;timestamp;pressure;altitude;pressure_sealevel;temperature;humidity
62462;BME280;48511;38.664;-9.202;2022-11-12T00:00:44;49960.94;;;-146.63;64.24
62462;BME280;48511;38.664;-9.202;2022-11-12T00:03:04;49935.28;;;-146.63;64.22
62462;BME280;48511;38.664;-9.202;2022-11-12T00:05:24;49905.69;;;-146.63;64.56
62462;BME280;48511;38.664;-9.202;2022-11-12T00:07:44;49921.47;;;-146.63;64.81
62462;BME280;48511;38.664;-9.202;2022-11-12T00:10:03;49953.06;;;-146.63;64.93
62462;BME280;48511;38.664;-9.202;2022-11-12T00:12:23;49933.31;;;-146.63;65.21
62462;BME280;48511;38.664;-9.202;2022-11-12T00:14:42;49933.31;;;-146.63;65.19
62462;BME280;48511;38.664;-9.202;2022-11-12T00:17:01;49921.47;;;-146.63;65.30
62462;BME280;48511;38.664;-9.202;2022-11-12T00:19:20;49953.06;;;-146.63;65.39
62462;BME280;48511;38.664;-9.202;2022-11-12T00:21:40;49966.88;;;-146.63;65.70
62462;BME280;48511;38.664;-9.202;2022-11-12T00:23:59;49937.25;;;-146.63;65.87
62462;BME280;48511;38.664;-9.202;2022-11-12T00:26:18;49972.78;;;-146.63;66.05
62462;BME280;48511;38.664;-9.202;2022-11-12T00:28:38;49964.91;;;-146.63;66.13
62462;BME280;48511;38.664;-9.202;2022-11-12T00:30:57;49964.91;;;-146.63;65.93
62462;BME280;48511;38.664;-9.202;2022-11-12T00:33:16;49931.34;;;-146.63;65.73
62462;BME280;48511;38.664;-9.202;2022-11-12T00:35:36;49929.38;;;-146.63;66.08
62462;BME280;48511;38.664;-9.202;2022-11-12T00:37:55;49903.72;;;-146.63;65.77
62462;BME280;48511;38.664;-9.202;2022-11-12T00:40:15;49939.25;;;-146.63;65.65
62462;BME280;48511;38.664;-9.202;2022-11-12T00:42:35;49929.38;;;-146.63;65.59
62462;BME280;48511;38.664;-9.202;2022-11-12T00:44:54;49939.25;;;-146.63;65.53
62462;BME280;48511;38.664;-9.202;2022-11-12T00:47:13;49939.25;;;-146.63;65.56
62462;BME280;48511;38.664;-9.202;2022-11-12T00:49:33;49953.06;;;-146.63;65.75
62462;BME280;48511;38.664;-9.202;2022-11-12T00:51:51;49943.19;;;-146.63;65.78
62462;BME280;48511;38.664;-9.202;2022-11-12T00:54:11;49929.38;;;-146.63;65.79
62462;BME280;48511;38.664;-9.202;2022-11-12T00:56:30;50008.31;;;-146.63;65.90
62462;BME280;48511;38.664;-9.202;2022-11-12T00:58:50;49931.34;;;-146.63;66.07
62462;BME280;48511;38.664;-9.202;2022-11-12T01:01:11;49915.56;;;-146.63;66.13
62462;BME280;48511;38.664;-9.202;2022-11-12T01:03:30;49917.53;;;-146.63;65.71
62462;BME280;48511;38.664;-9.202;2022-11-12T01:05:49;49927.41;;;-146.63;66.15
62462;BME280;48511;38.664;-9.202;2022-11-12T01:08:08;49949.09;;;-146.63;66.33
62462;BME280;48511;38.664;-9.202;2022-11-12T01:10:27;49941.22;;;-146.63;66.41
62462;BME280;48511;38.664;-9.202;2022-11-12T01:12:47;49921.47;;;-146.63;66.43
62462;BME280;48511;38.664;-9.202;2022-11-12T01:15:07;49931.34;;;-146.63;66.41
62462;BME280;48511;38.664;-9.202;2022-11-12T01:17:26;49957.00;;;-146.63;66.79
62462;BME280;48511;38.664;-9.202;2022-11-12T01:19:46;49968.84;;;-146.63;66.81
62462;BME280;48511;38.664;-9.202;2022-11-12T01:22:05;49957.00;;;-146.63;66.72
62462;BME280;48511;38.664;-9.202;2022-11-12T01:24:24;49921.47;;;-146.63;66.72
62462;BME280;48511;38.664;-9.202;2022-11-12T01:26:44;49935.28;;;-146.63;66.78
62462;BME280;48511;38.664;-9.202;2022-11-12T01:29:03;49913.59;;;-146.63;66.86
62462;BME280;48511;38.664;-9.202;2022-11-12T01:31:27;49964.91;;;-146.63;67.09
62462;BME280;48511;38.664;-9.202;2022-11-12T01:33:51;49929.38;;;-146.63;67.00
62462;BME280;48511;38.664;-9.202;2022-11-12T01:36:11;49958.97;;;-146.63;66.89
62462;BME280;48511;38.664;-9.202;2022-11-12T01:38:37;49929.38;;;-146.63;66.87
62462;BME280;48511;38.664;-9.202;2022-11-12T01:40:57;49953.06;;;-146.63;66.76
62462;BME280;48511;38.664;-9.202;2022-11-12T01:43:16;49941.22;;;-146.63;67.06
62462;BME280;48511;38.664;-9.202;2022-11-12T01:45:34;49945.16;;;-146.63;67.22
62462;BME280;48511;38.664;-9.202;2022-11-12T01:47:53;49953.06;;;-146.63;67.17
62462;BME280;48511;38.664;-9.202;2022-11-12T01:53:05;49951.09;;;-146.63;67.09
62462;BME280;48511;38.664;-9.202;2022-11-12T01:55:27;49909.63;;;-146.63;66.80
62462;BME280;48511;38.664;-9.202;2022-11-12T01:57:55;49933.31;;;-146.63;66.81
62462;BME280;48511;38.664;-9.202;2022-11-12T02:00:17;49941.22;;;-146.63;66.88
62462;BME280;48511;38.664;-9.202;2022-11-12T02:02:36;49945.16;;;-146.63;67.07
62462;BME280;48511;38.664;-9.202;2022-11-12T02:04:56;49968.84;;;-146.63;67.11
62462;BME280;48511;38.664;-9.202;2022-11-12T02:07:16;49931.34;;;-146.63;67.09
62462;BME280;48511;38.664;-9.202;2022-11-12T02:09:37;49929.38;;;-146.63;67.09
62462;BME280;48511;38.664;-9.202;2022-11-12T02:11:57;49966.88;;;-146.63;67.21
62462;BME280;48511;38.664;-9.202;2022-11-12T02:14:16;49945.16;;;-146.63;67.26
62462;BME280;48511;38.664;-9.202;2022-11-12T02:16:45;49960.94;;;-146.63;67.49
62462;BME280;48511;38.664;-9.202;2022-11-12T02:19:08;49964.91;;;-146.63;67.42
62462;BME280;48511;38.664;-9.202;2022-11-12T02:21:27;49925.41;;;-146.63;67.44
62462;BME280;48511;38.664;-9.202;2022-11-12T02:23:56;49933.31;;;-146.63;67.10
62462;BME280;48511;38.664;-9.202;2022-11-12T02:26:15;49982.66;;;-146.63;67.12
62462;BME280;48511;38.664;-9.202;2022-11-12T02:28:35;49931.34;;;-146.63;67.16
62462;BME280;48511;38.664;-9.202;2022-11-12T02:30:54;49972.78;;;-146.63;67.39
62462;BME280;48511;38.664;-9.202;2022-11-12T02:33:13;49925.41;;;-146.63;67.49
62462;BME280;48511;38.664;-9.202;2022-11-12T02:35:32;49945.16;;;-146.63;67.69
62462;BME280;48511;38.664;-9.202;2022-11-12T02:37:51;49964.91;;;-146.63;67.87
62462;BME280;48511;38.664;-9.202;2022-11-12T02:40:10;49931.34;;;-146.63;67.67
62462;BME280;48511;38.664;-9.202;2022-11-12T02:42:30;49957.00;;;-146.63;67.82
62462;BME280;48511;38.664;-9.202;2022-11-12T02:44:48;49947.13;;;-146.63;67.76
62462;BME280;48511;38.664;-9.202;2022-11-12T02:47:08;49919.50;;;-146.63;67.92
62462;BME280;48511;38.664;-9.202;2022-11-12T02:49:27;49907.66;;;-146.63;68.01
62462;BME280;48511;38.664;-9.202;2022-11-12T02:51:46;49935.28;;;-146.63;68.03
62462;BME280;48511;38.664;-9.202;2022-11-12T02:54:05;49972.78;;;-146.63;68.08
62462;BME280;48511;38.664;-9.202;2022-11-12T02:56:25;49972.78;;;-146.63;68.19
62462;BME280;48511;38.664;-9.202;2022-11-12T02:58:44;49933.31;;;-146.63;68.16
62462;BME280;48511;38.664;-9.202;2022-11-12T03:01:03;49945.16;;;-146.63;68.20
62462;BME280;48511;38.664;-9.202;2022-11-12T03:03:23;49913.59;;;-146.63;68.28
62462;BME280;48511;38.664;-9.202;2022-11-12T03:05:44;49933.31;;;-146.63;68.37
62462;BME280;48511;38.664;-9.202;2022-11-12T03:08:05;49897.78;;;-146.63;68.42
62462;BME280;48511;38.664;-9.202;2022-11-12T03:10:25;49927.41;;;-146.63;68.59
62462;BME280;48511;38.664;-9.202;2022-11-12T03:12:45;49953.06;;;-146.63;68.69
62462;BME280;48511;38.664;-9.202;2022-11-12T03:15:04;49933.31;;;-146.63;68.85
62462;BME280;48511;38.664;-9.202;2022-11-12T03:17:23;49964.91;;;-146.63;69.17
62462;BME280;48511;38.664;-9.202;2022-11-12T03:19:43;49962.91;;;-146.63;69.69
62462;BME280;48511;38.664;-9.202;2022-11-12T03:22:02;49949.09;;;-146.63;69.58
62462;BME280;48511;38.664;-9.202;2022-11-12T03:24:21;49980.69;;;-146.63;69.81
62462;BME280;48511;38.664;-9.202;2022-11-12T03:26:40;49933.31;;;-146.63;69.33
62462;BME280;48511;38.664;-9.202;2022-11-12T03:28:59;49949.09;;;-146.63;69.33
62462;BME280;48511;38.664;-9.202;2022-11-12T03:31:18;49933.31;;;-146.63;69.02
62462;BME280;48511;38.664;-9.202;2022-11-12T03:33:38;49953.06;;;-146.63;69.30
62462;BME280;48511;38.664;-9.202;2022-11-12T03:35:57;49941.22;;;-146.63;69.58
62462;BME280;48511;38.664;-9.202;2022-11-12T03:38:16;49945.16;;;-146.63;69.80
62462;BME280;48511;38.664;-9.202;2022-11-12T03:40:35;49949.09;;;-146.63;69.77
62462;BME280;48511;38.664;-9.202;2022-11-12T03:42:54;49949.09;;;-146.63;69.93
62462;BME280;48511;38.664;-9.202;2022-11-12T03:45:14;49957.00;;;-146.63;70.14
62462;BME280;48511;38.664;-9.202;2022-11-12T03:47:34;49933.31;;;-146.63;70.48
62462;BME280;48511;38.664;-9.202;2022-11-12T03:49:53;49958.97;;;-146.63;70.54
62462;BME280;48511;38.664;-9.202;2022-11-12T03:52:12;49917.53;;;-146.63;70.65
62462;BME280;48511;38.664;-9.202;2022-11-12T03:54:31;49939.25;;;-146.63;70.85
62462;BME280;48511;38.664;-9.202;2022-11-12T03:56:51;49964.91;;;-146.63;71.09
62462;BME280;48511;38.664;-9.202;2022-11-12T03:59:10;49927.41;;;-146.63;71.16
62462;BME280;48511;38.664;-9.202;2022-11-12T04:01:29;49917.53;;;-146.63;71.33
62462;BME280;48511;38.664;-9.202;2022-11-12T04:03:48;49945.16;;;-146.63;71.14
62462;BME280;48511;38.664;-9.202;2022-11-12T04:06:08;49949.09;;;-146.63;71.00
62462;BME280;48511;38.664;-9.202;2022-11-12T04:08:46;49968.84;;;-146.63;71.38
62462;BME280;48511;38.664;-9.202;2022-11-12T04:11:13;49953.06;;;-146.63;71.23
62462;BME280;48511;38.664;-9.202;2022-11-12T04:13:32;49933.31;;;-146.63;71.13
62462;BME280;48511;38.664;-9.202;2022-11-12T04:16:16;49929.38;;;-146.63;71.53
62462;BME280;48511;38.664;-9.202;2022-11-12T04:18:55;49939.25;;;-146.63;71.36
62462;BME280;48511;38.664;-9.202;2022-11-12T04:21:45;49921.47;;;-146.63;71.52
62462;BME280;48511;38.664;-9.202;2022-11-12T04:24:14;49925.41;;;-146.63;71.59
62462;BME280;48511;38.664;-9.202;2022-11-12T04:26:53;49949.09;;;-146.63;71.80
62462;BME280;48511;38.664;-9.202;2022-11-12T04:29:12;49949.09;;;-146.63;72.18
62462;BME280;48511;38.664;-9.202;2022-11-12T04:31:50;49923.44;;;-146.63;72.09
62462;BME280;48511;38.664;-9.202;2022-11-12T04:34:09;49909.63;;;-146.63;72.26
62462;BME280;48511;38.664;-9.202;2022-11-12T04:36:54;49945.16;;;-146.63;72.20
62462;BME280;48511;38.664;-9.202;2022-11-12T04:39:13;49929.38;;;-146.63;72.17
62462;BME280;48511;38.664;-9.202;2022-11-12T04:41:32;49933.31;;;-146.63;72.29
62462;BME280;48511;38.664;-9.202;2022-11-12T04:44:09;49960.94;;;-146.63;72.27
62462;BME280;48511;38.664;-9.202;2022-11-12T04:46:47;49947.13;;;-146.63;72.64
62462;BME280;48511;38.664;-9.202;2022-11-12T04:49:06;49947.13;;;-146.63;72.64
62462;BME280;48511;38.664;-9.202;2022-11-12T04:51:25;49931.34;;;-146.63;72.73
62462;BME280;48511;38.664;-9.202;2022-11-12T04:54:03;49949.09;;;-146.63;72.77
62462;BME280;48511;38.664;-9.202;2022-11-12T04:56:22;49945.16;;;-146.63;72.56
62462;BME280;48511;38.664;-9.202;2022-11-12T04:58:41;49925.41;;;-146.63;72.88
62462;BME280;48511;38.664;-9.202;2022-11-12T05:01:00;49945.16;;;-146.63;73.25
62462;BME280;48511;38.664;-9.202;2022-11-12T05:03:21;49992.53;;;-146.63;73.05
62462;BME280;48511;38.664;-9.202;2022-11-12T05:05:40;49964.91;;;-146.63;73.12
62462;BME280;48511;38.664;-9.202;2022-11-12T05:08:00;49966.88;;;-146.63;73.15
62462;BME280;48511;38.664;-9.202;2022-11-12T05:10:19;49960.94;;;-146.63;73.36
62462;BME280;48511;38.664;-9.202;2022-11-12T05:12:38;49949.09;;;-146.63;73.36
62462;BME280;48511;38.664;-9.202;2022-11-12T05:14:57;49941.22;;;-146.63;73.44
62462;BME280;48511;38.664;-9.202;2022-11-12T05:17:17;49935.28;;;-146.63;73.79
62462;BME280;48511;38.664;-9.202;2022-11-12T05:19:36;49935.28;;;-146.63;73.72
62462;BME280;48511;38.664;-9.202;2022-11-12T05:21:55;49945.16;;;-146.63;73.84
62462;BME280;48511;38.664;-9.202;2022-11-12T05:24:24;49929.38;;;-146.63;73.93
62462;BME280;48511;38.664;-9.202;2022-11-12T05:26:43;49953.06;;;-146.63;73.98
62462;BME280;48511;38.664;-9.202;2022-11-12T05:29:03;49953.06;;;-146.63;74.15
62462;BME280;48511;38.664;-9.202;2022-11-12T05:31:23;49941.22;;;-146.63;73.94
62462;BME280;48511;38.664;-9.202;2022-11-12T05:33:41;49964.91;;;-146.63;74.13
62462;BME280;48511;38.664;-9.202;2022-11-12T05:36:01;49960.94;;;-146.63;74.03
62462;BME280;48511;38.664;-9.202;2022-11-12T05:38:21;49949.09;;;-146.63;73.93
62462;BME280;48511;38.664;-9.202;2022-11-12T05:40:43;49941.22;;;-146.63;73.90
62462;BME280;48511;38.664;-9.202;2022-11-12T05:43:02;49945.16;;;-146.63;73.98
62462;BME280;48511;38.664;-9.202;2022-11-12T05:45:22;49929.38;;;-146.63;74.09
62462;BME280;48511;38.664;-9.202;2022-11-12T05:47:41;49964.91;;;-146.63;74.11
62462;BME280;48511;38.664;-9.202;2022-11-12T05:50:00;49960.94;;;-146.63;74.14
62462;BME280;48511;38.664;-9.202;2022-11-12T05:52:19;49960.94;;;-146.63;74.23
62462;BME280;48511;38.664;-9.202;2022-11-12T05:54:38;49937.25;;;-146.63;74.25
62462;BME280;48511;38.664;-9.202;2022-11-12T05:56:57;49929.38;;;-146.63;74.40
62462;BME280;48511;38.664;-9.202;2022-11-12T05:59:16;49937.25;;;-146.63;74.46
62462;BME280;48511;38.664;-9.202;2022-11-12T06:01:35;49955.03;;;-146.63;74.44
62462;BME280;48511;38.664;-9.202;2022-11-12T06:04:01;49951.09;;;-146.63;74.67
62462;BME280;48511;38.664;-9.202;2022-11-12T06:06:21;49947.13;;;-146.63;74.63
62462;BME280;48511;38.664;-9.202;2022-11-12T06:08:40;49947.13;;;-146.63;74.71
62462;BME280;48511;38.664;-9.202;2022-11-12T06:10:59;49941.22;;;-146.63;74.59
62462;BME280;48511;38.664;-9.202;2022-11-12T06:13:20;49933.31;;;-146.63;74.87
62462;BME280;48511;38.664;-9.202;2022-11-12T06:15:40;49931.34;;;-146.63;74.76
62462;BME280;48511;38.664;-9.202;2022-11-12T06:17:59;49949.09;;;-146.63;74.86
62462;BME280;48511;38.664;-9.202;2022-11-12T06:20:19;49962.91;;;-146.63;74.91
62462;BME280;48511;38.664;-9.202;2022-11-12T06:22:38;49953.06;;;-146.63;74.94
62462;BME280;48511;38.664;-9.202;2022-11-12T06:24:57;49939.25;;;-146.63;74.75
62462;BME280;48511;38.664;-9.202;2022-11-12T06:27:17;49935.28;;;-146.63;74.74
62462;BME280;48511;38.664;-9.202;2022-11-12T06:29:35;49949.09;;;-146.63;74.89
62462;BME280;48511;38.664;-9.202;2022-11-12T06:31:56;49964.91;;;-146.63;74.95
62462;BME280;48511;38.664;-9.202;2022-11-12T06:34:15;49953.06;;;-146.63;75.00
62462;BME280;48511;38.664;-9.202;2022-11-12T06:36:34;49953.06;;;-146.63;74.76
62462;BME280;48511;38.664;-9.202;2022-11-12T06:38:53;49968.84;;;-146.63;75.24
62462;BME280;48511;38.664;-9.202;2022-11-12T06:41:13;49913.59;;;-146.63;75.61
62462;BME280;48511;38.664;-9.202;2022-11-12T06:43:33;49947.13;;;-146.63;75.52
62462;BME280;48511;38.664;-9.202;2022-11-12T06:45:52;49966.88;;;-146.63;75.49
62462;BME280;48511;38.664;-9.202;2022-11-12T06:48:11;49982.66;;;-146.63;75.69
62462;BME280;48511;38.664;-9.202;2022-11-12T06:50:30;49960.94;;;-146.63;75.79
62462;BME280;48511;38.664;-9.202;2022-11-12T06:52:49;49964.91;;;-146.63;75.64
62462;BME280;48511;38.664;-9.202;2022-11-12T06:55:09;49939.25;;;-146.63;75.61
62462;BME280;48511;38.664;-9.202;2022-11-12T06:57:28;49945.16;;;-146.63;75.75
62462;BME280;48511;38.664;-9.202;2022-11-12T06:59:47;49953.06;;;-146.63;75.75
62462;BME280;48511;38.664;-9.202;2022-11-12T07:02:06;49945.16;;;-146.63;75.80
62462;BME280;48511;38.664;-9.202;2022-11-12T07:04:25;49949.09;;;-146.63;75.74
62462;BME280;48511;38.664;-9.202;2022-11-12T07:06:44;49953.06;;;-146.63;75.69
62462;BME280;48511;38.664;-9.202;2022-11-12T07:09:03;49958.97;;;-146.63;75.71
62462;BME280;48511;38.664;-9.202;2022-11-12T07:11:23;49986.59;;;-146.63;75.49
62462;BME280;48511;38.664;-9.202;2022-11-12T07:13:43;49964.91;;;-146.63;75.41
62462;BME280;48511;38.664;-9.202;2022-11-12T07:16:04;49960.94;;;-146.63;75.48
62462;BME280;48511;38.664;-9.202;2022-11-12T07:18:25;49964.91;;;-146.63;75.66
62462;BME280;48511;38.664;-9.202;2022-11-12T07:20:44;50004.38;;;-146.63;75.62
62462;BME280;48511;38.664;-9.202;2022-11-12T07:23:03;49933.31;;;-146.63;75.67
62462;BME280;48511;38.664;-9.202;2022-11-12T07:25:23;49964.91;;;-146.63;75.82
62462;BME280;48511;38.664;-9.202;2022-11-12T07:27:42;49958.97;;;-146.63;75.91
62462;BME280;48511;38.664;-9.202;2022-11-12T07:30:01;49941.22;;;-146.63;75.89
62462;BME280;48511;38.664;-9.202;2022-11-12T07:32:20;49968.84;;;-146.63;76.00
62462;BME280;48511;38.664;-9.202;2022-11-12T07:34:39;49949.09;;;-146.63;75.95
62462;BME280;48511;38.664;-9.202;2022-11-12T07:36:59;49949.09;;;-146.63;75.75
62462;BME280;48511;38.664;-9.202;2022-11-12T07:39:18;49945.16;;;-146.63;75.72
62462;BME280;48511;38.664;-9.202;2022-11-12T07:41:37;49933.31;;;-146.63;75.53
62462;BME280;48511;38.664;-9.202;2022-11-12T07:43:55;49923.44;;;-146.63;75.39
62462;BME280;48511;38.664;-9.202;2022-11-12T07:46:20;49955.03;;;-146.63;75.20
62462;BME280;48511;38.664;-9.202;2022-11-12T07:48:40;49945.16;;;-146.63;74.96
62462;BME280;48511;38.664;-9.202;2022-11-12T07:51:02;49925.41;;;-146.63;74.74
62462;BME280;48511;38.664;-9.202;2022-11-12T07:53:22;49960.94;;;-146.63;74.53
62462;BME280;48511;38.664;-9.202;2022-11-12T07:55:41;49970.81;;;-146.63;74.54
62462;BME280;48511;38.664;-9.202;2022-11-12T07:58:00;49935.28;;;-146.63;74.35
62462;BME280;48511;38.664;-9.202;2022-11-12T08:00:19;49947.13;;;-146.63;74.05
62462;BME280;48511;38.664;-9.202;2022-11-12T08:02:38;49988.59;;;-146.63;73.78
62462;BME280;48511;38.664;-9.202;2022-11-12T08:04:58;49915.56;;;-146.63;73.64
62462;BME280;48511;38.664;-9.202;2022-11-12T08:07:16;49929.38;;;-146.63;73.29
62462;BME280;48511;38.664;-9.202;2022-11-12T08:09:36;49929.38;;;-146.63;73.44
62462;BME280;48511;38.664;-9.202;2022-11-12T08:11:55;49945.16;;;-146.63;73.06
62462;BME280;48511;38.664;-9.202;2022-11-12T08:14:14;49941.22;;;-146.63;73.04
62462;BME280;48511;38.664;-9.202;2022-11-12T08:16:34;49984.63;;;-146.63;73.02
62462;BME280;48511;38.664;-9.202;2022-11-12T08:18:53;49982.66;;;-146.63;72.85
62462;BME280;48511;38.664;-9.202;2022-11-12T08:21:14;49955.03;;;-146.63;72.38
62462;BME280;48511;38.664;-9.202;2022-11-12T08:23:33;49941.22;;;-146.63;72.28
62462;BME280;48511;38.664;-9.202;2022-11-12T08:25:57;49966.88;;;-146.63;71.83
62462;BME280;48511;38.664;-9.202;2022-11-12T08:28:16;49970.81;;;-146.63;71.36
62462;BME280;48511;38.664;-9.202;2022-11-12T08:30:35;49929.38;;;-146.63;71.18
62462;BME280;48511;38.664;-9.202;2022-11-12T08:32:57;49974.75;;;-146.63;70.82
62462;BME280;48511;38.664;-9.202;2022-11-12T08:35:17;49945.16;;;-146.63;70.46
62462;BME280;48511;38.664;-9.202;2022-11-12T08:37:36;49949.09;;;-146.63;70.20
62462;BME280;48511;38.664;-9.202;2022-11-12T08:39:55;49968.84;;;-146.63;69.81
62462;BME280;48511;38.664;-9.202;2022-11-12T08:42:14;49931.34;;;-146.63;69.37
62462;BME280;48511;38.664;-9.202;2022-11-12T08:44:33;49945.16;;;-146.63;69.60
62462;BME280;48511;38.664;-9.202;2022-11-12T08:46:53;49986.59;;;-146.63;69.58
62462;BME280;48511;38.664;-9.202;2022-11-12T08:49:12;49958.97;;;-146.63;69.70
62462;BME280;48511;38.664;-9.202;2022-11-12T08:51:32;49957.00;;;-146.63;69.72
62462;BME280;48511;38.664;-9.202;2022-11-12T08:53:51;49972.78;;;-146.63;69.12
62462;BME280;48511;38.664;-9.202;2022-11-12T08:56:10;49949.09;;;-146.63;67.93
62462;BME280;48511;38.664;-9.202;2022-11-12T08:58:29;49941.22;;;-146.63;68.71
62462;BME280;48511;38.664;-9.202;2022-11-12T09:00:48;49958.97;;;-146.63;68.89
62462;BME280;48511;38.664;-9.202;2022-11-12T09:03:17;49994.50;;;-146.63;68.50
62462;BME280;48511;38.664;-9.202;2022-11-12T09:05:37;49937.25;;;-146.63;68.56
62462;BME280;48511;38.664;-9.202;2022-11-12T09:08:07;49933.31;;;-146.63;68.38
62462;BME280;48511;38.664;-9.202;2022-11-12T09:10:27;49937.25;;;-146.63;67.34
62462;BME280;48511;38.664;-9.202;2022-11-12T09:12:49;49951.09;;;-146.63;67.25
62462;BME280;48511;38.664;-9.202;2022-11-12T09:15:09;49943.19;;;-146.63;67.06
62462;BME280;48511;38.664;-9.202;2022-11-12T09:17:28;49941.22;;;-146.63;67.09
62462;BME280;48511;38.664;-9.202;2022-11-12T09:19:48;49964.91;;;-146.63;66.78
62462;BME280;48511;38.664;-9.202;2022-11-12T09:22:07;49917.53;;;-146.63;66.39
62462;BME280;48511;38.664;-9.202;2022-11-12T09:24:27;49929.38;;;-146.63;66.52
62462;BME280;48511;38.664;-9.202;2022-11-12T09:26:46;49966.88;;;-146.63;66.54
62462;BME280;48511;38.664;-9.202;2022-11-12T09:29:06;49964.91;;;-146.63;66.70
62462;BME280;48511;38.664;-9.202;2022-11-12T09:31:25;49972.78;;;-146.63;66.14
62462;BME280;48511;38.664;-9.202;2022-11-12T09:33:44;49925.41;;;-146.63;66.13
62462;BME280;48511;38.664;-9.202;2022-11-12T09:36:03;49947.13;;;-146.63;65.66
62462;BME280;48511;38.664;-9.202;2022-11-12T09:38:22;49958.97;;;-146.63;64.63
62462;BME280;48511;38.664;-9.202;2022-11-12T09:41:00;49941.22;;;-146.63;64.77
62462;BME280;48511;38.664;-9.202;2022-11-12T09:43:36;49978.72;;;-146.63;64.85
62462;BME280;48511;38.664;-9.202;2022-11-12T09:46:01;49953.06;;;-146.63;64.58
62462;BME280;48511;38.664;-9.202;2022-11-12T09:48:26;49955.03;;;-146.63;64.03
62462;BME280;48511;38.664;-9.202;2022-11-12T09:50:55;49968.84;;;-146.63;63.69
62462;BME280;48511;38.664;-9.202;2022-11-12T09:53:18;49964.91;;;-146.63;63.54
62462;BME280;48511;38.664;-9.202;2022-11-12T09:55:48;49907.66;;;-146.63;63.43
62462;BME280;48511;38.664;-9.202;2022-11-12T09:58:11;49917.53;;;-146.63;63.21
62462;BME280;48511;38.664;-9.202;2022-11-12T10:00:31;49980.69;;;-146.63;62.92
62462;BME280;48511;38.664;-9.202;2022-11-12T10:02:56;49909.63;;;-146.63;62.80
62462;BME280;48511;38.664;-9.202;2022-11-12T10:05:33;49960.94;;;-146.63;63.57
62462;BME280;48511;38.664;-9.202;2022-11-12T10:08:04;49925.41;;;-146.63;62.44
62462;BME280;48511;38.664;-9.202;2022-11-12T10:10:45;49949.09;;;-146.63;62.47
62462;BME280;48511;38.664;-9.202;2022-11-12T10:16:06;49921.47;;;-146.63;62.23
62462;BME280;48511;38.664;-9.202;2022-11-12T10:24:10;49925.41;;;-146.63;61.25
62462;BME280;48511;38.664;-9.202;2022-11-12T10:26:31;49972.78;;;-146.63;61.18
62462;BME280;48511;38.664;-9.202;2022-11-12T10:28:58;49941.22;;;-146.63;60.84
62462;BME280;48511;38.664;-9.202;2022-11-12T10:31:21;49925.41;;;-146.63;60.21
62462;BME280;48511;38.664;-9.202;2022-11-12T10:33:40;49968.84;;;-146.63;60.24
62462;BME280;48511;38.664;-9.202;2022-11-12T10:36:32;49949.09;;;-146.63;60.29
62462;BME280;48511;38.664;-9.202;2022-11-12T10:38:53;49939.25;;;-146.63;60.49
62462;BME280;48511;38.664;-9.202;2022-11-12T10:41:27;49911.59;;;-146.63;59.92
62462;BME280;48511;38.664;-9.202;2022-11-12T10:44:00;49964.91;;;-146.63;59.64
62462;BME280;48511;38.664;-9.202;2022-11-12T10:46:22;49964.91;;;-146.63;59.47
62462;BME280;48511;38.664;-9.202;2022-11-12T10:48:52;49929.38;;;-146.63;59.30
62462;BME280;48511;38.664;-9.202;2022-11-12T10:51:23;49945.16;;;-146.63;58.72
62462;BME280;48511;38.664;-9.202;2022-11-12T10:53:44;49964.91;;;-146.63;58.62
62462;BME280;48511;38.664;-9.202;2022-11-12T10:56:21;49925.41;;;-146.63;58.47
62462;BME280;48511;38.664;-9.202;2022-11-12T10:58:41;49945.16;;;-146.63;58.73
62462;BME280;48511;38.664;-9.202;2022-11-12T11:01:03;49968.84;;;-146.63;58.46
62462;BME280;48511;38.664;-9.202;2022-11-12T11:03:28;49990.56;;;-146.63;58.41
62462;BME280;48511;38.664;-9.202;2022-11-12T11:08:13;49929.38;;;-146.63;58.83
62462;BME280;48511;38.664;-9.202;2022-11-12T11:10:34;49972.78;;;-146.63;58.31
62462;BME280;48511;38.664;-9.202;2022-11-12T11:13:25;49925.41;;;-146.63;58.00
62462;BME280;48511;38.664;-9.202;2022-11-12T11:16:02;49964.91;;;-146.63;57.44
62462;BME280;48511;38.664;-9.202;2022-11-12T11:18:21;49923.44;;;-146.63;56.76
62462;BME280;48511;38.664;-9.202;2022-11-12T11:20:46;49976.75;;;-146.63;56.49
62462;BME280;48511;38.664;-9.202;2022-11-12T11:23:24;49943.19;;;-146.63;55.31
62462;BME280;48511;38.664;-9.202;2022-11-12T11:25:46;49957.00;;;-146.63;54.61
62462;BME280;48511;38.664;-9.202;2022-11-12T11:30:47;49915.56;;;-146.63;53.53
62462;BME280;48511;38.664;-9.202;2022-11-12T11:33:23;49923.44;;;-146.63;54.23
62462;BME280;48511;38.664;-9.202;2022-11-12T11:38:28;49919.50;;;-146.63;54.08
62462;BME280;48511;38.664;-9.202;2022-11-12T11:41:02;49949.09;;;-146.63;53.93
62462;BME280;48511;38.664;-9.202;2022-11-12T11:57:10;49947.13;;;-146.63;50.33
62462;BME280;48511;38.664;-9.202;2022-11-12T12:09:49;49931.34;;;-146.63;49.98
62462;BME280;48511;38.664;-9.202;2022-11-12T12:14:56;49933.31;;;-146.63;49.86
62462;BME280;48511;38.664;-9.202;2022-11-12T12:22:24;49933.31;;;-146.63;49.48
62462;BME280;48511;38.664;-9.202;2022-11-12T12:24:51;49960.94;;;-146.63;49.50
62462;BME280;48511;38.664;-9.202;2022-11-12T12:32:28;49917.53;;;-146.63;49.79
62462;BME280;48511;38.664;-9.202;2022-11-12T12:35:13;49905.69;;;-146.63;49.99
62462;BME280;48511;38.664;-9.202;2022-11-12T12:37:38;49925.41;;;-146.63;49.96
62462;BME280;48511;38.664;-9.202;2022-11-12T12:40:07;49919.50;;;-146.63;49.89
62462;BME280;48511;38.664;-9.202;2022-11-12T12:42:54;49929.38;;;-146.63;48.74
62462;BME280;48511;38.664;-9.202;2022-11-12T12:47:43;49939.25;;;-146.63;49.16
62462;BME280;48511;38.664;-9.202;2022-11-12T12:50:12;49921.47;;;-146.63;48.63
62462;BME280;48511;38.664;-9.202;2022-11-12T12:55:38;49921.47;;;-146.63;49.29
62462;BME280;48511;38.664;-9.202;2022-11-12T12:57:58;49923.44;;;-146.63;49.33
62462;BME280;48511;38.664;-9.202;2022-11-12T13:00:34;49925.41;;;-146.63;49.55
62462;BME280;48511;38.664;-9.202;2022-11-12T13:02:55;49917.53;;;-146.63;49.83
62462;BME280;48511;38.664;-9.202;2022-11-12T13:05:41;49895.81;;;-146.63;49.38